createdAt,value
2024-01-31T00:00:34.716Z,0.70
2024-01-31T00:03:03.789Z,0.80
2024-01-31T00:05:53.632Z,0.60
2024-01-31T00:08:24.845Z,0.60
2024-01-31T00:10:53.728Z,0.85
2024-01-31T00:13:22.248Z,0.60
2024-01-31T00:15:50.818Z,0.70
2024-01-31T00:18:19.604Z,0.90
2024-01-31T00:20:48.221Z,0.70
2024-01-31T00:23:16.807Z,1.10
2024-01-31T00:25:45.451Z,0.73
2024-01-31T00:28:14.879Z,0.70
2024-01-31T00:30:43.451Z,0.80
2024-01-31T00:33:12.064Z,0.60
2024-01-31T00:35:40.607Z,0.98
2024-01-31T00:38:09.477Z,0.80
2024-01-31T00:40:38.117Z,0.80
2024-01-31T00:43:07.146Z,0.82
2024-01-31T00:45:35.832Z,0.82
2024-01-31T00:48:04.865Z,0.70
2024-01-31T00:50:33.619Z,0.80
2024-01-31T00:53:02.132Z,0.80
2024-01-31T00:55:30.760Z,0.90
2024-01-31T00:57:59.445Z,0.95
2024-01-31T01:00:28.712Z,0.93
2024-01-31T01:02:57.421Z,1.00
2024-01-31T01:05:26.080Z,0.90
2024-01-31T01:07:54.670Z,1.20
2024-01-31T01:10:23.658Z,0.68
2024-01-31T01:12:52.389Z,0.90
2024-01-31T01:15:21.963Z,0.80
2024-01-31T01:17:50.686Z,1.00
2024-01-31T01:20:20.122Z,0.98
2024-01-31T01:22:49.500Z,0.70
2024-01-31T01:25:19.060Z,0.88
2024-01-31T01:27:53.265Z,0.88
2024-01-31T01:30:23.075Z,0.80
2024-01-31T01:32:51.730Z,0.90
2024-01-31T01:35:20.352Z,1.15
2024-01-31T01:37:49.031Z,0.95
2024-01-31T01:40:18.982Z,1.40
2024-01-31T01:42:47.969Z,0.95
2024-01-31T01:45:16.613Z,1.30
2024-01-31T01:47:50.792Z,1.02
2024-01-31T01:50:20.758Z,0.90
2024-01-31T01:52:49.997Z,1.30
2024-01-31T01:55:18.917Z,1.10
2024-01-31T01:57:47.631Z,1.20
2024-01-31T02:00:18.198Z,1.05
2024-01-31T02:02:47.062Z,1.20
2024-01-31T02:05:15.801Z,1.10
2024-01-31T02:07:45.108Z,1.20
2024-01-31T02:10:13.725Z,1.13
2024-01-31T02:12:42.375Z,1.08
2024-01-31T02:15:12.201Z,1.10
2024-01-31T02:17:40.805Z,1.23
2024-01-31T02:20:10.088Z,1.40
2024-01-31T02:22:38.967Z,1.10
2024-01-31T02:25:15.502Z,1.42
2024-01-31T02:27:44.097Z,1.35
2024-01-31T02:30:13.075Z,1.58
2024-01-31T02:32:41.725Z,1.33
2024-01-31T02:35:10.414Z,1.40
2024-01-31T02:37:45.010Z,0.98
2024-01-31T02:40:13.690Z,1.00
2024-01-31T02:42:42.404Z,1.20
2024-01-31T02:45:11.352Z,1.10
2024-01-31T02:47:41.481Z,1.10
2024-01-31T02:50:10.558Z,1.13
2024-01-31T02:52:38.629Z,1.02
2024-01-31T02:55:07.861Z,1.30
2024-01-31T02:57:39.892Z,1.17
2024-01-31T03:02:39.332Z,1.20
2024-01-31T03:05:08.748Z,1.83
2024-01-31T03:07:37.449Z,1.10
2024-01-31T03:10:06.529Z,1.20
2024-01-31T03:12:35.093Z,1.13
2024-01-31T03:15:04.280Z,1.50
2024-01-31T03:17:38.318Z,1.17
2024-01-31T03:20:08.031Z,1.60
2024-01-31T03:22:39.846Z,1.10
2024-01-31T03:25:09.817Z,0.80
2024-01-31T03:27:38.464Z,1.40
2024-01-31T03:30:09.331Z,0.90
2024-01-31T03:32:39.261Z,0.95
2024-01-31T03:35:08.540Z,1.33
2024-01-31T03:37:37.313Z,1.17
2024-01-31T03:40:11.535Z,1.00
2024-01-31T03:42:40.293Z,1.25
2024-01-31T03:45:08.566Z,1.23
2024-01-31T03:47:37.326Z,1.20
2024-01-31T03:50:09.396Z,1.52
2024-01-31T03:52:38.647Z,2.63
2024-01-31T03:55:07.757Z,2.03
2024-01-31T03:57:36.348Z,1.42
2024-01-31T04:00:11.582Z,2.05
2024-01-31T04:02:40.567Z,1.50
2024-01-31T04:05:13.582Z,1.45
2024-01-31T04:07:46.784Z,1.88
2024-01-31T04:12:44.956Z,1.83
2024-01-31T04:15:12.926Z,1.77
2024-01-31T04:17:41.734Z,1.83
2024-01-31T04:20:11.099Z,1.35
2024-01-31T04:22:40.502Z,1.27
2024-01-31T04:25:10.024Z,1.63
2024-01-31T04:27:38.732Z,1.40
2024-01-31T04:30:10.598Z,1.23
2024-01-31T04:32:39.302Z,1.30
2024-01-31T04:35:11.565Z,1.50
2024-01-31T04:37:40.499Z,1.75
2024-01-31T04:40:11.347Z,1.48
2024-01-31T04:42:41.419Z,1.77
2024-01-31T04:45:10.980Z,1.48
2024-01-31T04:47:40.535Z,1.50
2024-01-31T04:50:09.809Z,1.75
2024-01-31T04:52:39.135Z,1.30
2024-01-31T04:55:08.113Z,1.42
2024-01-31T04:57:36.747Z,1.70
2024-01-31T05:00:07.094Z,1.63
2024-01-31T05:02:35.692Z,1.60
2024-01-31T05:05:04.063Z,1.42
2024-01-31T05:07:32.695Z,1.30
2024-01-31T05:10:01.488Z,1.50
2024-01-31T05:12:30.168Z,1.73
2024-01-31T05:14:58.675Z,1.40
2024-01-31T05:17:27.287Z,1.67
2024-01-31T05:19:55.932Z,1.40
2024-01-31T05:22:24.601Z,1.70
2024-01-31T05:24:53.175Z,1.65
2024-01-31T05:27:21.701Z,1.73
2024-01-31T05:29:50.254Z,1.67
2024-01-31T05:32:18.906Z,1.60
2024-01-31T05:34:47.496Z,1.48
2024-01-31T05:37:16.209Z,1.50
2024-01-31T05:39:44.843Z,1.60
2024-01-31T05:42:13.359Z,1.98
2024-01-31T05:44:41.959Z,1.65
2024-01-31T05:47:10.535Z,1.52
2024-01-31T05:49:39.281Z,1.42
2024-01-31T05:52:08.424Z,1.50
2024-01-31T05:54:37.081Z,1.70
2024-01-31T05:57:05.770Z,1.30
2024-01-31T05:59:34.405Z,1.95
2024-01-31T06:02:03.030Z,1.38
2024-01-31T06:04:31.613Z,1.80
2024-01-31T06:07:00.354Z,1.80
2024-01-31T06:09:32.690Z,1.27
2024-01-31T06:12:01.235Z,1.58
2024-01-31T06:14:29.783Z,1.48
2024-01-31T06:16:58.397Z,1.30
2024-01-31T06:19:27.643Z,1.60
2024-01-31T06:21:56.206Z,1.60
2024-01-31T06:24:24.270Z,1.52
2024-01-31T06:26:52.787Z,1.40
2024-01-31T06:29:21.417Z,1.42
2024-01-31T06:31:51.003Z,1.67
2024-01-31T06:34:19.703Z,1.75
2024-01-31T06:36:48.343Z,1.73
2024-01-31T06:39:17.086Z,1.40
2024-01-31T06:41:45.667Z,1.38
2024-01-31T06:44:14.278Z,1.88
2024-01-31T06:46:43.042Z,1.65
2024-01-31T06:49:11.751Z,1.70
2024-01-31T06:51:40.542Z,1.50
2024-01-31T06:54:09.796Z,1.75
2024-01-31T06:56:38.465Z,1.40
2024-01-31T06:59:07.095Z,1.67
2024-01-31T07:01:35.921Z,1.75
2024-01-31T07:04:04.754Z,2.28
2024-01-31T07:06:33.489Z,1.55
2024-01-31T07:09:02.218Z,1.70
2024-01-31T07:11:30.840Z,1.45
2024-01-31T07:13:59.429Z,1.63
2024-01-31T07:16:28.031Z,1.70
2024-01-31T07:18:57.773Z,2.10
2024-01-31T07:21:27.896Z,1.40
2024-01-31T07:23:57.086Z,1.92
2024-01-31T07:26:30.772Z,1.80
2024-01-31T07:28:59.321Z,1.73
2024-01-31T07:31:28.292Z,1.60
2024-01-31T07:33:56.988Z,1.70
2024-01-31T07:36:25.608Z,1.50
2024-01-31T07:38:54.292Z,2.15
2024-01-31T07:41:22.975Z,2.00
2024-01-31T07:43:51.557Z,1.63
2024-01-31T07:46:20.299Z,1.60
2024-01-31T07:48:49.001Z,1.38
2024-01-31T07:51:18.139Z,1.50
2024-01-31T07:53:46.719Z,2.10
2024-01-31T07:56:15.329Z,1.80
2024-01-31T07:58:44.075Z,1.50
2024-01-31T08:01:15.905Z,2.10
2024-01-31T08:03:45.362Z,1.58
2024-01-31T08:06:13.960Z,1.42
2024-01-31T08:08:44.952Z,1.38
2024-01-31T08:11:14.205Z,1.67
2024-01-31T08:13:42.918Z,1.55
2024-01-31T08:16:17.533Z,2.78
2024-01-31T08:18:46.180Z,1.70
2024-01-31T08:21:14.613Z,1.50
2024-01-31T08:23:43.304Z,1.80
2024-01-31T08:26:21.488Z,1.63
2024-01-31T08:28:56.322Z,1.52
2024-01-31T08:31:31.594Z,1.45
2024-01-31T08:34:00.377Z,1.40
2024-01-31T08:36:30.227Z,1.38
2024-01-31T08:38:58.834Z,1.42
2024-01-31T08:41:27.650Z,1.88
2024-01-31T08:43:56.207Z,1.25
2024-01-31T08:46:24.826Z,1.58
2024-01-31T08:48:53.501Z,1.50
2024-01-31T08:51:21.955Z,1.30
2024-01-31T08:53:50.524Z,1.52
2024-01-31T08:56:19.167Z,1.10
2024-01-31T08:58:47.797Z,1.10
2024-01-31T09:01:15.797Z,1.48
2024-01-31T09:03:44.418Z,1.10
2024-01-31T09:06:14.838Z,1.38
2024-01-31T09:08:43.427Z,1.38
2024-01-31T09:11:11.981Z,1.45
2024-01-31T09:13:40.611Z,1.92
2024-01-31T09:16:09.275Z,1.50
2024-01-31T09:18:39.984Z,1.25
2024-01-31T09:21:10.468Z,1.83
2024-01-31T09:23:39.169Z,1.48
2024-01-31T09:26:07.860Z,1.70
2024-01-31T09:28:36.501Z,1.90
2024-01-31T09:31:05.312Z,1.40
2024-01-31T09:33:33.910Z,1.70
2024-01-31T09:36:02.461Z,1.70
2024-01-31T09:38:31.138Z,2.05
2024-01-31T09:41:00.112Z,1.48
2024-01-31T09:43:29.699Z,1.48
2024-01-31T09:46:00.133Z,1.60
2024-01-31T09:48:29.869Z,1.42
2024-01-31T09:50:58.549Z,1.25
2024-01-31T09:53:27.209Z,1.50
2024-01-31T09:55:59.180Z,1.30
2024-01-31T09:58:27.757Z,1.30
2024-01-31T10:01:00.530Z,1.40
2024-01-31T10:03:30.628Z,1.17
2024-01-31T10:05:59.322Z,1.42
2024-01-31T10:08:31.743Z,1.45
2024-01-31T10:11:00.409Z,1.42
2024-01-31T10:13:30.118Z,1.67
2024-01-31T10:15:58.777Z,1.67
2024-01-31T10:18:30.868Z,1.70
2024-01-31T10:21:00.454Z,1.42
2024-01-31T10:23:29.083Z,1.55
2024-01-31T10:25:57.966Z,1.52
2024-01-31T10:28:26.794Z,1.75
2024-01-31T10:30:56.251Z,1.92
2024-01-31T10:33:26.716Z,1.83
2024-01-31T10:38:28.206Z,1.55
2024-01-31T10:40:59.941Z,2.17
2024-01-31T10:43:31.814Z,2.65
2024-01-31T10:46:00.576Z,1.90
2024-01-31T10:48:29.567Z,2.17
2024-01-31T10:51:01.839Z,2.38
2024-01-31T10:53:32.392Z,1.95
2024-01-31T10:56:02.392Z,2.65
2024-01-31T10:58:31.762Z,1.95
2024-01-31T11:01:00.506Z,1.80
2024-01-31T11:03:29.502Z,1.98
2024-01-31T11:05:58.741Z,1.98
2024-01-31T11:08:29.464Z,1.80
2024-01-31T11:10:58.484Z,2.00
2024-01-31T11:13:27.034Z,2.00
2024-01-31T11:15:55.596Z,1.98
2024-01-31T11:18:28.190Z,1.50
2024-01-31T11:20:58.514Z,2.30
2024-01-31T11:23:28.190Z,1.65
2024-01-31T11:25:56.466Z,1.80
2024-01-31T11:28:28.628Z,1.95
2024-01-31T11:30:57.483Z,1.85
2024-01-31T11:33:26.139Z,1.60
2024-01-31T11:35:54.959Z,1.70
2024-01-31T11:38:24.059Z,1.58
2024-01-31T11:40:53.947Z,1.60
2024-01-31T11:43:22.861Z,1.88
2024-01-31T11:45:51.479Z,1.77
2024-01-31T11:48:20.179Z,2.15
2024-01-31T11:50:49.034Z,1.40
2024-01-31T11:53:17.891Z,1.70
2024-01-31T11:55:49.665Z,1.70
2024-01-31T11:58:18.359Z,2.00
2024-01-31T12:00:47.418Z,1.40
2024-01-31T12:03:16.294Z,1.58
2024-01-31T12:05:45.028Z,1.60
2024-01-31T12:08:19.435Z,1.80
2024-01-31T12:10:47.559Z,1.70
2024-01-31T12:13:17.283Z,1.83
2024-01-31T12:15:48.929Z,1.88
2024-01-31T12:18:18.167Z,1.95
2024-01-31T12:20:46.836Z,1.65
2024-01-31T12:23:15.481Z,1.40
2024-01-31T12:25:44.029Z,1.33
2024-01-31T12:28:12.620Z,2.25
2024-01-31T12:30:41.367Z,1.90
2024-01-31T12:33:10.324Z,1.80
2024-01-31T12:35:38.981Z,2.20
2024-01-31T12:38:07.667Z,1.50
2024-01-31T12:40:36.426Z,1.55
2024-01-31T12:43:05.500Z,1.55
2024-01-31T12:45:35.743Z,2.42
2024-01-31T12:48:04.629Z,1.45
2024-01-31T12:50:33.705Z,1.73
2024-01-31T12:53:02.282Z,1.70
2024-01-31T12:55:30.951Z,2.05
2024-01-31T12:57:59.557Z,1.52
2024-01-31T13:00:28.221Z,2.05
2024-01-31T13:02:56.991Z,1.88
2024-01-31T13:05:26.493Z,1.80
2024-01-31T13:07:55.430Z,1.63
2024-01-31T13:10:24.668Z,1.60
2024-01-31T13:12:53.203Z,1.33
2024-01-31T13:15:25.228Z,1.50
2024-01-31T13:17:53.936Z,1.50
2024-01-31T13:20:23.052Z,1.45
2024-01-31T13:22:51.799Z,1.83
2024-01-31T13:25:20.372Z,1.48
2024-01-31T13:27:50.740Z,1.30
2024-01-31T13:30:19.521Z,1.55
2024-01-31T13:32:48.238Z,2.45
2024-01-31T13:35:16.756Z,2.30
2024-01-31T13:37:45.398Z,2.05
2024-01-31T13:40:14.105Z,1.80
2024-01-31T13:42:42.781Z,2.35
2024-01-31T13:45:12.297Z,1.98
2024-01-31T13:47:41.838Z,1.60
2024-01-31T13:50:10.778Z,2.15
2024-01-31T13:52:39.023Z,2.13
2024-01-31T13:55:08.119Z,2.10
2024-01-31T13:57:36.790Z,1.70
2024-01-31T14:00:09.829Z,1.80
2024-01-31T14:02:40.294Z,2.30
2024-01-31T14:05:09.428Z,2.13
2024-01-31T14:07:38.007Z,1.75
2024-01-31T14:10:07.540Z,2.13
2024-01-31T14:12:36.120Z,2.10
2024-01-31T14:15:04.999Z,2.38
2024-01-31T14:17:33.611Z,2.60
2024-01-31T14:20:02.398Z,2.42
2024-01-31T14:22:41.294Z,2.13
2024-01-31T14:25:19.727Z,2.10
2024-01-31T14:27:48.534Z,2.42
2024-01-31T14:30:17.515Z,1.92
2024-01-31T14:32:46.366Z,2.42
2024-01-31T14:35:15.017Z,2.00
2024-01-31T14:37:43.863Z,1.90
2024-01-31T14:40:12.762Z,2.10
2024-01-31T14:42:41.314Z,2.00
2024-01-31T14:45:13.088Z,1.98
2024-01-31T14:47:41.734Z,1.92
2024-01-31T14:50:10.595Z,2.25
2024-01-31T14:52:39.387Z,2.25
2024-01-31T14:55:08.534Z,2.20
2024-01-31T14:57:39.000Z,2.65
2024-01-31T15:00:08.523Z,2.28
2024-01-31T15:02:37.095Z,2.38
2024-01-31T15:05:06.039Z,2.28
2024-01-31T15:07:34.829Z,2.97
2024-01-31T15:10:03.388Z,1.80
2024-01-31T15:12:31.995Z,1.88
2024-01-31T15:15:00.549Z,1.92
2024-01-31T15:17:29.727Z,2.40
2024-01-31T15:19:58.443Z,2.00
2024-01-31T15:22:28.755Z,1.95
2024-01-31T15:24:57.358Z,2.10
2024-01-31T15:27:26.168Z,1.83
2024-01-31T15:29:54.778Z,2.50
2024-01-31T15:32:23.585Z,2.42
2024-01-31T15:34:52.335Z,2.35
2024-01-31T15:37:21.166Z,2.38
2024-01-31T15:39:49.803Z,2.78
2024-01-31T15:42:18.358Z,2.45
2024-01-31T15:44:47.695Z,2.55
2024-01-31T15:47:18.716Z,3.03
2024-01-31T15:49:48.210Z,2.55
2024-01-31T15:52:17.944Z,2.72
2024-01-31T15:54:46.553Z,2.92
2024-01-31T15:57:15.167Z,3.00
2024-01-31T15:59:43.799Z,2.45
2024-01-31T16:02:12.377Z,2.75
2024-01-31T16:04:40.436Z,2.78
2024-01-31T16:07:09.918Z,3.00
2024-01-31T16:09:38.548Z,3.17
2024-01-31T16:12:07.765Z,2.38
2024-01-31T16:14:40.585Z,2.60
2024-01-31T16:17:09.470Z,2.42
2024-01-31T16:19:38.175Z,2.47
2024-01-31T16:22:06.862Z,3.13
2024-01-31T16:24:35.517Z,2.92
2024-01-31T16:27:04.207Z,3.42
2024-01-31T16:29:32.778Z,3.28
2024-01-31T16:32:01.400Z,2.28
2024-01-31T16:34:29.954Z,2.75
2024-01-31T16:36:58.554Z,2.60
2024-01-31T16:39:27.184Z,2.53
2024-01-31T16:41:56.096Z,2.30
2024-01-31T16:44:24.937Z,2.40
2024-01-31T16:46:53.531Z,2.33
2024-01-31T16:49:22.269Z,2.50
2024-01-31T16:51:50.949Z,2.45
2024-01-31T16:54:19.692Z,2.47
2024-01-31T16:56:48.392Z,2.67
2024-01-31T16:59:16.927Z,2.40
2024-01-31T17:01:48.632Z,3.13
2024-01-31T17:04:18.614Z,2.20
2024-01-31T17:06:47.214Z,2.05
2024-01-31T17:09:16.006Z,2.50
2024-01-31T17:11:44.689Z,1.98
2024-01-31T17:14:13.408Z,2.53
2024-01-31T17:16:46.386Z,2.00
2024-01-31T17:19:15.149Z,2.42
2024-01-31T17:21:43.936Z,2.17
2024-01-31T17:24:12.981Z,2.60
2024-01-31T17:26:41.752Z,2.08
2024-01-31T17:29:10.434Z,1.98
2024-01-31T17:31:39.166Z,1.77
2024-01-31T17:34:11.023Z,1.63
2024-01-31T17:36:39.684Z,1.65
2024-01-31T17:39:08.994Z,1.90
2024-01-31T17:41:37.582Z,1.75
2024-01-31T17:44:06.193Z,1.55
2024-01-31T17:46:34.889Z,1.88
2024-01-31T17:49:03.604Z,1.65
2024-01-31T17:51:32.264Z,1.60
2024-01-31T17:54:01.010Z,1.85
2024-01-31T17:56:29.758Z,1.50
2024-01-31T17:58:58.513Z,1.60
2024-01-31T18:01:27.829Z,2.03
2024-01-31T18:03:56.525Z,1.40
2024-01-31T18:06:25.353Z,1.83
2024-01-31T18:08:54.117Z,1.33
2024-01-31T18:11:22.708Z,1.42
2024-01-31T18:13:51.917Z,1.55
2024-01-31T18:16:21.280Z,1.70
2024-01-31T18:18:50.016Z,1.42
2024-01-31T18:21:19.053Z,1.45
2024-01-31T18:23:48.044Z,1.35
2024-01-31T18:26:21.742Z,1.92
2024-01-31T18:28:50.326Z,1.80
2024-01-31T18:31:21.500Z,1.60
2024-01-31T18:33:50.480Z,1.58
2024-01-31T18:36:19.594Z,1.40
2024-01-31T18:38:49.063Z,1.33
2024-01-31T18:41:18.757Z,1.02
2024-01-31T18:43:47.970Z,1.00
2024-01-31T18:46:17.030Z,1.02
2024-01-31T18:48:47.369Z,0.90
2024-01-31T18:51:18.942Z,0.82
2024-01-31T18:53:47.762Z,0.93
2024-01-31T18:56:16.776Z,1.00
2024-01-31T18:58:46.902Z,0.80
2024-01-31T19:01:15.619Z,0.85
2024-01-31T19:03:44.219Z,0.82
2024-01-31T19:06:13.961Z,0.80
2024-01-31T19:08:42.744Z,0.80
2024-01-31T19:11:11.771Z,1.00
2024-01-31T19:13:41.300Z,0.93
2024-01-31T19:16:09.903Z,0.80
2024-01-31T19:18:42.550Z,0.80
2024-01-31T19:21:11.354Z,1.00
2024-01-31T19:23:40.030Z,0.68
2024-01-31T19:26:08.428Z,0.70
2024-01-31T19:28:37.031Z,0.73
2024-01-31T19:31:05.737Z,0.80
2024-01-31T19:33:34.522Z,1.00
2024-01-31T19:36:03.323Z,0.80
2024-01-31T19:38:32.262Z,0.80
2024-01-31T19:41:00.856Z,0.80
2024-01-31T19:43:29.430Z,0.90
2024-01-31T19:45:57.980Z,0.70
2024-01-31T19:48:26.798Z,0.80
2024-01-31T19:50:55.515Z,0.70
2024-01-31T19:53:24.154Z,0.60
2024-01-31T19:55:52.762Z,0.65
2024-01-31T19:58:21.323Z,0.70
2024-01-31T20:00:50.031Z,0.80
2024-01-31T20:03:18.749Z,0.57
2024-01-31T20:05:48.968Z,0.70
2024-01-31T20:08:17.645Z,0.65
2024-01-31T20:10:46.263Z,0.70
2024-01-31T20:13:14.820Z,0.60
2024-01-31T20:15:43.472Z,0.85
2024-01-31T20:18:12.710Z,0.73
2024-01-31T20:20:43.517Z,0.70
2024-01-31T20:23:12.763Z,0.70
2024-01-31T20:25:41.414Z,0.77
2024-01-31T20:28:10.005Z,0.77
2024-01-31T20:30:38.710Z,0.70
2024-01-31T20:33:07.474Z,0.60
2024-01-31T20:35:37.209Z,0.80
2024-01-31T20:38:06.904Z,0.60
2024-01-31T20:40:35.557Z,0.70
2024-01-31T20:43:04.264Z,0.60
2024-01-31T20:45:36.691Z,0.60
2024-01-31T20:48:06.170Z,0.50
2024-01-31T20:50:34.915Z,0.60
2024-01-31T20:53:03.574Z,0.60
2024-01-31T20:55:32.473Z,0.50
2024-01-31T20:58:01.052Z,0.75
2024-01-31T21:00:29.592Z,0.90
2024-01-31T21:02:58.280Z,0.50
2024-01-31T21:05:30.491Z,0.52
2024-01-31T21:07:59.413Z,0.50
2024-01-31T21:10:28.113Z,0.60
2024-01-31T21:12:56.654Z,0.70
2024-01-31T21:15:25.299Z,0.50
2024-01-31T21:17:53.956Z,0.70
2024-01-31T21:20:22.612Z,0.60
2024-01-31T21:22:51.252Z,0.60
2024-01-31T21:25:19.985Z,0.50
2024-01-31T21:27:48.786Z,0.60
2024-01-31T21:30:17.499Z,0.60
2024-01-31T21:32:46.191Z,0.70
2024-01-31T21:35:14.870Z,0.60
2024-01-31T21:37:43.526Z,0.50
2024-01-31T21:40:13.052Z,0.60
2024-01-31T21:42:43.046Z,0.55
2024-01-31T21:45:13.873Z,0.70
2024-01-31T21:47:42.612Z,0.60
2024-01-31T21:50:11.521Z,0.85
2024-01-31T21:52:40.484Z,1.77
2024-01-31T21:55:09.145Z,0.70
2024-01-31T21:57:37.556Z,0.73
2024-01-31T22:00:08.368Z,0.70
2024-01-31T22:02:37.005Z,0.90
2024-01-31T22:05:05.863Z,0.70
2024-01-31T22:07:34.598Z,0.80
2024-01-31T22:10:03.202Z,0.98
2024-01-31T22:12:31.879Z,0.77
2024-01-31T22:15:00.542Z,1.00
2024-01-31T22:17:29.230Z,0.73
2024-01-31T22:19:58.038Z,0.80
2024-01-31T22:22:26.736Z,0.90
2024-01-31T22:24:55.552Z,0.70
2024-01-31T22:27:24.209Z,1.00
2024-01-31T22:29:52.830Z,0.90
2024-01-31T22:32:21.401Z,0.80
2024-01-31T22:34:49.877Z,0.88
2024-01-31T22:37:18.482Z,0.75
2024-01-31T22:39:47.283Z,0.60
2024-01-31T22:42:15.864Z,0.90
2024-01-31T22:44:44.545Z,0.77
2024-01-31T22:47:13.344Z,0.82
2024-01-31T22:49:42.251Z,0.68
2024-01-31T22:52:11.264Z,0.90
2024-01-31T22:54:47.489Z,0.77
2024-01-31T22:57:22.745Z,1.07
2024-01-31T22:59:51.473Z,0.90
2024-01-31T23:02:20.054Z,0.80
2024-01-31T23:04:48.720Z,0.68
2024-01-31T23:07:17.586Z,0.80
2024-01-31T23:09:46.335Z,0.73
2024-01-31T23:12:15.402Z,0.95
2024-01-31T23:14:47.390Z,0.80
2024-01-31T23:17:15.810Z,0.70
2024-01-31T23:19:44.415Z,0.80
2024-01-31T23:22:13.055Z,1.05
2024-01-31T23:24:42.395Z,0.80
2024-01-31T23:27:11.031Z,0.80
2024-01-31T23:29:39.859Z,0.80
2024-01-31T23:32:08.797Z,0.70
2024-01-31T23:34:36.728Z,0.70
2024-01-31T23:37:05.467Z,0.90
2024-01-31T23:39:34.115Z,0.85
2024-01-31T23:42:02.796Z,0.70
2024-01-31T23:44:31.495Z,0.70
2024-01-31T23:47:00.068Z,0.82
2024-01-31T23:49:28.863Z,0.80
2024-01-31T23:51:57.846Z,0.70
2024-01-31T23:54:26.391Z,0.82
2024-01-31T23:56:54.994Z,0.90
2024-01-31T23:59:23.998Z,0.88
